Buies Creek, North Carolina
Current Conditions -  °F | °C
As of 12:35 PM on Thursday 23 Oct 2014 (Local Time) from KHRJ Reporting Station
Clear Clear  
Wind Chill: 64°   Ceiling: Unl
Heat Index: 64°   Visibility: 10mi
Dew Point: 42°   Wind: 3mph
Humidity: 44%   Direction: 320°NW
Pressure: 30.01"   Gusts: NA
Location:  35.41°N, 78.74°W
Report Text: KHRJ 231635Z AUTO 32003KT 10SM CLR 18/06 A3001 RMK AO2 T01780055
Loading
Personal Weather Stations






























Interactive Weather Map
Tropical Storm Tracking
New forecast layout! Learn more

10-Day Weather Forecast

Advertisements
Track Severe Weather on mobile